Durham, Canada
Current Conditions -  °F | °C
As of 8:00 PM on Monday 20 Oct 2014 (Local Time) from CYVV Reporting Station
Drizzle Drizzle  
Wind Chill: 50°   Ceiling: 800
Heat Index: 50°   Visibility: 1.5mi
Dew Point: 48°   Wind: 5mph
Humidity: 94%   Direction: 250°WSW
Pressure: 29.78"   Gusts: NA
Location:  44.18°N, 80.82°W
Report Text: CYVV 210000Z 25004KT 1 1/2SM -DZ BR OVC008 10/09 A2978 RMKFG2SF6 SLP091
Loading
Personal Weather Stations






























Interactive Weather Map
Tropical Storm Tracking
New forecast layout! Learn more

10-Day Weather Forecast

Advertisements
Track Severe Weather on mobile